Time;durP1;ratioP1;P1;durP2;ratioP2;P2;SDS_P1;SDS_P2;PMS_P1;PMS_P2;Temp;Humidity;BMP_temperature;BMP_pressure;BME280_temperature;BME280_humidity;BME280_pressure;Samples;Min_cycle;Max_cycle;Signal;HPM_P1;HPM_P2
2021/06/10 00:00:09;;;;;;;17.60;8.57;;;;;;;12.88;100.00;102156.06;5250428;28;20532;-82
2021/06/10 00:02:40;;;;;;;16.10;8.40;;;;;;;12.85;100.00;102149.13;5269014;28;20450;-82
2021/06/10 00:05:12;;;;;;;11.85;8.23;;;;;;;12.81;100.00;102155.81;5269108;28;20078;-82
2021/06/10 00:07:42;;;;;;;14.20;9.02;;;;;;;12.79;100.00;102157.78;5269274;28;20058;-82
2021/06/10 00:10:16;;;;;;;12.45;7.97;;;;;;;12.76;100.00;102152.72;5268911;28;20048;-82
2021/06/10 00:12:47;;;;;;;13.25;8.23;;;;;;;12.73;100.00;102146.78;5268239;28;20515;-82
2021/06/10 00:15:23;;;;;;;11.32;8.32;;;;;;;12.70;100.00;102148.78;5269031;28;20059;-82
2021/06/10 00:17:53;;;;;;;;;;;;;;;12.69;100.00;102143.53;5269099;28;20024;-82
2021/06/10 00:20:26;;;;;;;14.10;8.18;;;;;;;12.65;100.00;102140.28;5269218;28;19908;-82
2021/06/10 00:22:56;;;;;;;14.57;8.07;;;;;;;12.62;100.00;102145.13;5268892;28;20020;-82
2021/06/10 00:25:28;;;;;;;14.90;9.23;;;;;;;12.58;100.00;102144.56;5269456;28;20488;-82
2021/06/10 00:27:59;;;;;;;13.48;8.85;;;;;;;12.55;100.00;102144.88;5267182;28;20115;-82
2021/06/10 00:30:31;;;;;;;12.63;7.65;;;;;;;12.50;100.00;102141.78;5269060;28;20068;-82
2021/06/10 00:33:03;;;;;;;14.25;8.63;;;;;;;12.48;100.00;102146.44;5268489;28;20106;-82
2021/06/10 00:35:33;;;;;;;13.30;8.75;;;;;;;12.44;100.00;102147.72;5267169;28;20062;-82
2021/06/10 00:38:04;;;;;;;17.48;8.52;;;;;;;12.41;100.00;102151.56;5267178;28;20027;-82
2021/06/10 00:40:35;;;;;;;16.50;9.15;;;;;;;12.36;100.00;102145.78;5268801;28;20020;-82
2021/06/10 00:43:05;;;;;;;23.33;9.75;;;;;;;12.31;100.00;102150.75;5266017;28;20024;-82
2021/06/10 00:45:36;;;;;;;15.60;9.18;;;;;;;12.30;100.00;102156.25;5271820;28;20032;-82
2021/06/10 00:48:07;;;;;;;14.13;9.95;;;;;;;12.28;100.00;102150.19;5271494;28;20417;-82
2021/06/10 00:50:42;;;;;;;16.05;10.10;;;;;;;12.31;100.00;102149.91;5271827;28;20529;-82
2021/06/10 00:53:21;;;;;;;12.23;8.63;;;;;;;12.29;100.00;102155.41;5271916;28;20028;-82
2021/06/10 00:55:54;;;;;;;18.67;9.70;;;;;;;12.28;100.00;102151.03;5271841;28;20055;-82
2021/06/10 00:58:27;;;;;;;14.57;9.20;;;;;;;12.27;100.00;102152.03;5271514;28;20046;-82
2021/06/10 01:00:57;;;;;;;14.85;9.38;;;;;;;12.24;100.00;102141.56;5270920;28;20027;-82
2021/06/10 01:03:28;;;;;;;14.75;10.15;;;;;;;12.22;100.00;102145.41;5270887;28;20024;-82
2021/06/10 01:06:03;;;;;;;17.50;10.07;;;;;;;12.20;100.00;102145.56;5269072;28;20111;-82
2021/06/10 01:08:42;;;;;;;15.38;10.05;;;;;;;12.15;100.00;102142.44;5267799;28;20371;-82
2021/06/10 01:11:14;;;;;;;14.63;9.65;;;;;;;12.14;100.00;102140.72;5266116;28;20186;-82
2021/06/10 01:13:56;;;;;;;18.13;10.63;;;;;;;12.09;100.00;102148.38;5247817;28;20059;-82
2021/06/10 01:16:32;;;;;;;18.05;10.30;;;;;;;12.07;100.00;102145.00;5266468;28;20532;-82
2021/06/10 01:19:10;;;;;;;14.23;9.77;;;;;;;12.02;100.00;102141.91;5266634;28;20024;-82
2021/06/10 01:21:43;;;;;;;16.80;10.40;;;;;;;12.01;100.00;102145.59;5263977;28;20391;-82
2021/06/10 01:24:29;;;;;;;17.75;11.00;;;;;;;11.97;100.00;102136.09;5247253;28;20039;-82
2021/06/10 01:27:02;;;;;;;17.63;11.82;;;;;;;11.95;100.00;102136.25;5247099;28;20024;-82
2021/06/10 01:29:36;;;;;;;20.10;11.90;;;;;;;11.94;100.00;102142.59;5264950;28;20380;-82
2021/06/10 01:32:07;;;;;;;18.25;9.43;;;;;;;11.93;100.00;102144.44;5264759;28;20545;-82
2021/06/10 01:34:38;;;;;;;17.30;10.23;;;;;;;11.93;100.00;102133.69;5264957;28;20077;-82
2021/06/10 01:37:08;;;;;;;20.98;12.32;;;;;;;11.95;100.00;102141.63;5264730;28;20412;-82
2021/06/10 01:39:41;;;;;;;20.17;11.77;;;;;;;11.96;100.00;102137.94;5264381;28;20380;-82
2021/06/10 01:42:14;;;;;;;24.05;11.20;;;;;;;11.97;100.00;102141.47;5267678;28;20024;-82
2021/06/10 01:44:47;;;;;;;19.27;11.40;;;;;;;11.97;100.00;102146.84;5269663;28;20107;-82
2021/06/10 01:47:20;;;;;;;17.50;10.68;;;;;;;11.96;100.00;102139.78;5270458;28;20387;-82
2021/06/10 01:49:52;;;;;;;18.02;10.68;;;;;;;11.91;100.00;102140.22;5249727;28;20168;-82
2021/06/10 01:52:25;;;;;;;20.00;11.02;;;;;;;11.91;100.00;102145.59;5267843;28;20031;-82
2021/06/10 01:54:56;;;;;;;18.15;11.15;;;;;;;11.94;100.00;102145.28;5251654;28;20040;-82
2021/06/10 01:57:31;;;;;;;21.95;11.18;;;;;;;11.93;100.00;102141.75;5269361;28;20035;-82
2021/06/10 02:00:07;;;;;;;20.27;12.80;;;;;;;11.98;100.00;102132.41;5269871;28;20526;-82
2021/06/10 02:02:38;;;;;;;20.47;10.80;;;;;;;11.98;100.00;102141.31;5269813;28;20621;-82
2021/06/10 02:05:15;;;;;;;21.13;13.45;;;;;;;11.93;100.00;102140.91;5269234;28;20278;-82
2021/06/10 02:07:46;;;;;;;17.17;10.63;;;;;;;11.88;100.00;102143.19;5269719;28;20111;-82
2021/06/10 02:10:21;;;;;;;16.63;10.45;;;;;;;11.82;100.00;102141.06;5269217;28;20039;-82
2021/06/10 02:13:07;;;;;;;25.05;12.70;;;;;;;11.77;100.00;102141.47;5268839;28;20099;-82
2021/06/10 02:15:40;;;;;;;17.95;11.48;;;;;;;11.73;100.00;102142.72;5269180;28;20020;-82
2021/06/10 02:18:13;;;;;;;18.45;11.18;;;;;;;11.71;100.00;102141.19;5269393;28;20012;-82
2021/06/10 02:20:44;;;;;;;20.13;11.85;;;;;;;11.78;100.00;102140.47;5268555;28;20333;-82
2021/06/10 02:23:14;;;;;;;16.70;11.07;;;;;;;11.80;100.00;102135.81;5250815;28;20069;-82
2021/06/10 02:25:45;;;;;;;20.95;11.80;;;;;;;11.83;100.00;102138.22;5269657;28;20107;-82
2021/06/10 02:28:16;;;;;;;20.05;11.65;;;;;;;11.86;100.00;102129.03;5268968;28;20028;-82
2021/06/10 02:30:47;;;;;;;21.25;13.27;;;;;;;11.89;100.00;102128.75;5272837;28;20028;-82
2021/06/10 02:33:17;;;;;;;20.60;12.15;;;;;;;11.85;100.00;102128.19;5272969;28;20020;-82
2021/06/10 02:35:48;;;;;;;21.50;13.18;;;;;;;11.76;100.00;102129.03;5273784;28;20076;-82
2021/06/10 02:38:20;;;;;;;21.63;12.43;;;;;;;11.68;100.00;102127.03;5274018;28;20028;-82
2021/06/10 02:40:52;;;;;;;20.48;13.20;;;;;;;11.63;100.00;102123.06;5254909;28;20031;-82
2021/06/10 02:43:24;;;;;;;21.13;12.60;;;;;;;11.58;100.00;102117.28;5266755;28;20305;-82
2021/06/10 02:45:54;;;;;;;17.33;11.60;;;;;;;11.56;100.00;102120.13;5272769;28;20028;-82
2021/06/10 02:48:29;;;;;;;23.23;13.63;;;;;;;11.55;100.00;102123.81;5272556;28;20032;-82
2021/06/10 02:51:01;;;;;;;16.90;12.40;;;;;;;11.52;100.00;102116.00;5268547;28;20022;-82
2021/06/10 02:53:32;;;;;;;18.50;10.65;;;;;;;11.48;100.00;102116.44;5271245;28;20107;-82
2021/06/10 02:56:07;;;;;;;17.58;11.05;;;;;;;11.43;100.00;102114.16;5272449;28;20422;-82
2021/06/10 02:58:40;;;;;;;14.25;9.55;;;;;;;11.39;100.00;102112.75;5270766;28;20028;-82
2021/06/10 03:01:11;;;;;;;14.18;10.15;;;;;;;11.32;100.00;102114.31;5254040;28;20020;-82
2021/06/10 03:03:43;;;;;;;18.60;11.32;;;;;;;11.27;100.00;102112.03;5272656;28;20031;-82
2021/06/10 03:06:15;;;;;;;24.35;13.55;;;;;;;11.26;100.00;102113.03;5272657;28;20092;-82
2021/06/10 03:08:50;;;;;;;23.50;14.50;;;;;;;11.27;100.00;102113.88;5271727;28;20024;-82
2021/06/10 03:11:22;;;;;;;31.23;13.65;;;;;;;11.29;100.00;102106.50;5272371;28;20072;-82
2021/06/10 03:13:53;;;;;;;23.90;13.27;;;;;;;11.25;100.00;102105.97;5270267;28;20020;-82
2021/06/10 03:16:25;;;;;;;19.67;12.45;;;;;;;11.20;100.00;102102.84;5272294;28;20502;-81
2021/06/10 03:18:58;;;;;;;23.42;13.93;;;;;;;11.17;100.00;102104.97;5272103;28;20225;-82
2021/06/10 03:21:30;;;;;;;27.15;15.45;;;;;;;11.15;100.00;102097.91;5253133;28;20103;-82
2021/06/10 03:24:01;;;;;;;22.13;14.85;;;;;;;11.17;100.00;102091.53;5251608;28;20032;-82
2021/06/10 03:26:35;;;;;;;25.83;15.85;;;;;;;11.16;100.00;102090.69;5248954;28;20498;-82
2021/06/10 03:29:06;;;;;;;21.92;14.60;;;;;;;11.13;100.00;102086.44;5266835;28;20066;-82
2021/06/10 03:31:38;;;;;;;22.65;14.55;;;;;;;11.12;100.00;102095.47;5267044;28;20489;-82
2021/06/10 03:34:09;;;;;;;20.30;12.40;;;;;;;11.11;100.00;102088.41;5267051;28;20024;-82
2021/06/10 03:36:40;;;;;;;21.17;13.38;;;;;;;11.12;100.00;102090.09;5248705;28;20556;-82
2021/06/10 03:39:12;;;;;;;23.08;15.13;;;;;;;11.05;100.00;102094.34;5266446;28;20027;-82
2021/06/10 03:41:42;;;;;;;25.05;15.38;;;;;;;11.03;100.00;102093.63;5244167;28;20368;-82
2021/06/10 03:44:14;;;;;;;28.67;17.77;;;;;;;11.04;100.00;102091.78;5263818;28;20073;-82
2021/06/10 03:46:44;;;;;;;27.30;17.35;;;;;;;11.06;100.00;102096.03;5266500;28;20034;-82
2021/06/10 03:49:15;;;;;;;31.58;19.30;;;;;;;11.06;100.00;102087.97;5247469;28;20326;-82
2021/06/10 03:51:53;;;;;;;32.05;18.35;;;;;;;11.12;100.00;102089.25;5265642;28;20022;-82
2021/06/10 03:54:23;;;;;;;25.70;16.67;;;;;;;11.12;100.00;102084.72;5265995;28;20454;-82
2021/06/10 03:56:54;;;;;;;30.23;18.20;;;;;;;11.17;100.00;102088.84;5265692;28;20032;-82
2021/06/10 03:59:24;;;;;;;30.52;18.15;;;;;;;11.23;100.00;102090.97;5265312;28;20028;-82
2021/06/10 04:01:55;;;;;;;27.75;15.90;;;;;;;11.27;100.00;102087.00;5265446;28;20047;-82
2021/06/10 04:04:27;;;;;;;26.00;16.45;;;;;;;11.35;100.00;102095.22;5265545;28;20047;-82
2021/06/10 04:06:58;;;;;;;21.92;13.80;;;;;;;11.42;100.00;102096.34;5267987;28;20491;-82
2021/06/10 04:09:28;;;;;;;21.92;13.27;;;;;;;11.50;100.00;102103.72;5271525;28;20020;-82
2021/06/10 04:11:58;;;;;;;24.60;14.63;;;;;;;11.55;100.00;102101.44;5271884;28;20052;-82
2021/06/10 04:14:29;;;;;;;21.33;13.45;;;;;;;11.58;100.00;102098.47;5271442;28;20426;-82
2021/06/10 04:17:00;;;;;;;21.15;13.55;;;;;;;11.65;100.00;102102.28;5253988;28;20364;-82
2021/06/10 04:19:31;;;;;;;24.60;14.45;;;;;;;11.73;100.00;102104.25;5271421;28;20430;-82
2021/06/10 04:22:01;;;;;;;22.45;12.65;;;;;;;11.79;100.00;102091.06;5271290;28;20042;-82
2021/06/10 04:24:32;;;;;;;16.92;11.95;;;;;;;11.75;100.00;102100.44;5270405;28;20391;-82
2021/06/10 04:27:03;;;;;;;16.88;11.77;;;;;;;11.83;100.00;102107.81;5269969;28;20034;-82
2021/06/10 04:29:35;;;;;;;18.77;13.43;;;;;;;11.92;100.00;102113.16;5252118;28;20278;-82
2021/06/10 04:32:05;;;;;;;17.20;11.82;;;;;;;12.01;100.00;102108.78;5252855;28;20032;-82
2021/06/10 04:34:36;;;;;;;22.33;13.63;;;;;;;12.11;100.00;102106.06;5270757;28;20544;-82
2021/06/10 04:37:06;;;;;;;24.08;13.70;;;;;;;12.18;100.00;102099.94;5269988;28;20020;-82
2021/06/10 04:39:37;;;;;;;21.35;13.25;;;;;;;12.24;100.00;102105.72;5270079;28;20039;-82
2021/06/10 04:42:08;;;;;;;18.90;12.43;;;;;;;12.35;100.00;102110.91;5269487;28;20080;-82
2021/06/10 04:44:38;;;;;;;17.58;11.85;;;;;;;12.44;100.00;102108.19;5252575;28;20107;-82
2021/06/10 04:47:09;;;;;;;19.80;12.13;;;;;;;12.54;100.00;102107.31;5270746;28;20110;-82
2021/06/10 04:49:40;;;;;;;19.25;11.88;;;;;;;12.67;100.00;102110.53;5270672;28;20217;-82
2021/06/10 04:52:11;;;;;;;18.27;11.57;;;;;;;12.77;100.00;102116.72;5266948;28;20107;-82
2021/06/10 04:54:42;;;;;;;17.45;12.02;;;;;;;12.87;100.00;102108.56;5269240;28;20032;-82
2021/06/10 04:57:12;;;;;;;19.10;12.57;;;;;;;13.03;100.00;102110.59;5249395;28;20035;-82
2021/06/10 04:59:43;;;;;;;21.08;13.48;;;;;;;13.12;100.00;102105.16;5268741;28;20429;-82
2021/06/10 05:02:13;;;;;;;22.77;12.55;;;;;;;13.23;100.00;102112.19;5268045;28;20055;-82
2021/06/10 05:04:44;;;;;;;19.75;13.40;;;;;;;13.36;100.00;102114.53;5269428;28;20032;-82
2021/06/10 05:07:14;;;;;;;18.98;12.88;;;;;;;13.50;100.00;102113.13;5269041;28;20126;-82
2021/06/10 05:09:45;;;;;;;23.08;13.77;;;;;;;13.66;100.00;102119.53;5269709;28;20066;-82
2021/06/10 05:12:15;;;;;;;24.23;15.65;;;;;;;13.81;100.00;102114.41;5267816;28;20107;-82
2021/06/10 05:14:45;;;;;;;21.20;14.50;;;;;;;13.97;100.00;102111.84;5250458;28;20080;-82
2021/06/10 05:17:16;;;;;;;25.70;16.05;;;;;;;14.20;100.00;102112.13;5266856;28;20028;-82
2021/06/10 05:19:46;;;;;;;31.67;17.75;;;;;;;14.45;100.00;102107.72;5266578;28;20047;-82
2021/06/10 05:22:17;;;;;;;25.27;15.90;;;;;;;15.17;100.00;102108.19;5267920;28;20016;-82
2021/06/10 05:24:47;;;;;;;22.15;13.77;;;;;;;16.55;100.00;102101.00;5268271;28;20039;-82
2021/06/10 05:27:18;;;;;;;19.42;12.30;;;;;;;17.96;100.00;102093.50;5267919;28;20024;-82
2021/06/10 05:29:48;;;;;;;17.33;11.48;;;;;;;19.27;100.00;102092.72;5268708;28;20024;-83
2021/06/10 05:32:19;;;;;;;18.63;11.02;;;;;;;20.30;100.00;102099.47;5268657;28;20479;-83
2021/06/10 05:34:49;;;;;;;14.20;10.88;;;;;;;21.08;100.00;102100.06;5266320;28;20028;-83
2021/06/10 05:37:20;;;;;;;19.17;11.45;;;;;;;21.42;100.00;102101.00;5267926;28;20020;-82
2021/06/10 05:39:50;;;;;;;16.25;10.88;;;;;;;21.76;100.00;102096.41;5252730;28;20106;-83
2021/06/10 05:42:21;;;;;;;17.45;10.88;;;;;;;22.35;100.00;102085.44;5257445;28;20556;-83
2021/06/10 05:44:51;;;;;;;13.60;10.35;;;;;;;22.51;100.00;102092.31;5267542;28;20043;-83
2021/06/10 05:47:22;;;;;;;14.98;10.05;;;;;;;23.09;100.00;102085.97;5269384;28;20557;-83
2021/06/10 05:49:52;;;;;;;15.35;11.20;;;;;;;23.14;100.00;102086.16;5267342;28;20027;-83
2021/06/10 05:52:24;;;;;;;15.60;10.90;;;;;;;23.26;100.00;102092.63;5266913;28;20556;-83
2021/06/10 05:54:54;;;;;;;16.95;10.48;;;;;;;23.93;97.35;102092.97;5265958;28;20024;-83
2021/06/10 05:57:25;;;;;;;15.10;11.52;;;;;;;23.83;100.00;102098.97;5269400;28;20062;-83
2021/06/10 05:59:55;;;;;;;13.27;10.90;;;;;;;24.62;93.14;102100.06;5266579;28;20024;-83
2021/06/10 06:02:26;;;;;;;14.45;11.00;;;;;;;24.45;89.16;102104.47;5270815;28;20411;-83
2021/06/10 06:04:56;;;;;;;17.17;11.00;;;;;;;25.49;76.22;102099.72;5266885;28;20491;-83
2021/06/10 06:07:27;;;;;;;12.15;10.50;;;;;;;25.06;79.97;102100.78;5268685;28;20115;-83
2021/06/10 06:09:57;;;;;;;22.15;11.52;;;;;;;25.51;80.84;102097.59;5269603;28;20560;-83
2021/06/10 06:12:28;;;;;;;14.68;10.52;;;;;;;25.96;75.09;102103.44;5271301;28;20564;-83
2021/06/10 06:14:59;;;;;;;18.02;10.20;;;;;;;25.70;65.64;102095.59;5252892;28;20023;-83
2021/06/10 06:17:29;;;;;;;12.75;9.00;;;;;;;25.22;66.74;102091.06;5270778;28;20058;-83
2021/06/10 06:20:00;;;;;;;11.02;8.00;;;;;;;25.48;56.48;102093.41;5271629;28;20369;-81
2021/06/10 06:22:30;;;;;;;12.55;7.78;;;;;;;25.82;56.76;102091.81;5272774;28;20088;-83
2021/06/10 06:25:00;;;;;;;14.68;7.20;;;;;;;25.49;56.08;102092.31;5271507;28;20053;-83
2021/06/10 06:27:31;;;;;;;9.68;5.55;;;;;;;25.86;54.14;102094.94;5253561;28;20119;-83
2021/06/10 06:30:04;;;;;;;10.60;5.75;;;;;;;26.38;53.74;102102.44;5268575;28;20021;-83
2021/06/10 06:32:36;;;;;;;10.55;6.13;;;;;;;26.22;53.38;102104.00;5268125;28;20077;-84
2021/06/10 06:35:08;;;;;;;10.07;5.57;;;;;;;26.12;53.47;102107.38;5265847;28;20028;-83
2021/06/10 06:37:38;;;;;;;11.95;5.50;;;;;;;25.98;51.34;102114.19;5265038;28;20024;-83
2021/06/10 06:40:09;;;;;;;8.85;5.07;;;;;;;25.91;50.20;102102.47;5264857;28;20020;-84
2021/06/10 06:42:40;;;;;;;6.43;3.97;;;;;;;24.76;49.64;102100.75;5260458;28;20023;-83
2021/06/10 06:45:10;;;;;;;6.55;3.92;;;;;;;25.38;51.23;102095.88;5267333;28;20498;-83
2021/06/10 06:47:41;;;;;;;7.65;3.85;;;;;;;25.07;52.94;102101.66;5267534;28;20479;-83
2021/06/10 06:50:12;;;;;;;7.60;4.35;;;;;;;24.96;51.48;102097.75;5263071;28;20056;-83
2021/06/10 06:52:43;;;;;;;9.98;4.03;;;;;;;24.75;46.74;102101.78;5268117;28;20377;-83
2021/06/10 06:55:14;;;;;;;7.72;4.55;;;;;;;24.07;49.29;102110.13;5268024;28;20059;-83
2021/06/10 06:57:44;;;;;;;8.70;4.05;;;;;;;23.56;52.28;102119.41;5268434;28;20432;-83
2021/06/10 07:00:15;;;;;;;5.85;4.30;;;;;;;23.02;52.56;102128.97;5250206;28;20074;-83
2021/06/10 07:02:46;;;;;;;7.97;4.07;;;;;;;22.92;53.39;102123.97;5267428;28;20035;-83
2021/06/10 07:05:16;;;;;;;12.25;4.90;;;;;;;22.64;52.84;102125.13;5265731;28;20153;-83
2021/06/10 07:07:47;;;;;;;7.72;3.88;;;;;;;22.80;57.12;102139.38;5260768;28;20276;-83
2021/06/10 07:10:17;;;;;;;7.88;4.63;;;;;;;22.78;55.25;102139.56;5237345;28;20033;-82
2021/06/10 07:12:48;;;;;;;6.03;4.75;;;;;;;22.56;57.97;102132.72;5262802;28;20024;-83
2021/06/10 07:15:18;;;;;;;8.57;4.60;;;;;;;22.65;55.34;102135.00;5261916;28;20111;-82
2021/06/10 07:17:48;;;;;;;9.40;4.50;;;;;;;22.55;56.62;102131.03;5270916;28;20036;-82
2021/06/10 07:20:19;;;;;;;9.23;4.72;;;;;;;22.53;59.70;102130.38;5252149;28;20032;-82
2021/06/10 07:22:50;;;;;;;10.43;5.55;;;;;;;22.44;61.42;102138.84;5267908;28;20082;-82
2021/06/10 07:25:21;;;;;;;9.65;4.88;;;;;;;22.56;69.88;102139.00;5254456;28;20066;-81
2021/06/10 07:27:52;;;;;;;7.30;5.38;;;;;;;22.60;72.57;102133.97;5272496;28;20156;-81
2021/06/10 07:30:23;;;;;;;8.10;5.60;;;;;;;22.77;69.79;102139.78;5272243;28;20429;-81
2021/06/10 07:32:53;;;;;;;11.98;5.72;;;;;;;22.90;63.61;102135.13;5253914;28;20036;-83
2021/06/10 07:35:24;;;;;;;8.80;5.30;;;;;;;23.08;63.45;102134.41;5258544;28;20080;-82
2021/06/10 07:37:54;;;;;;;8.93;4.97;;;;;;;23.07;67.66;102142.84;5263892;28;20494;-82
2021/06/10 07:40:25;;;;;;;8.13;5.60;;;;;;;23.14;68.34;102149.13;5234320;28;20064;-82
2021/06/10 07:42:56;;;;;;;9.90;4.68;;;;;;;23.29;68.98;102140.63;5231469;28;20020;-82
2021/06/10 07:45:28;;;;;;;11.10;5.93;;;;;;;23.23;61.07;102142.34;5249609;28;20095;-81
2021/06/10 07:47:59;;;;;;;7.30;5.00;;;;;;;23.45;59.24;102145.59;5255774;28;20032;-82
2021/06/10 07:50:30;;;;;;;9.20;5.43;;;;;;;23.50;62.40;102148.50;5261899;28;20024;-82
2021/06/10 07:53:01;;;;;;;7.38;5.03;;;;;;;23.64;63.94;102150.09;5235663;28;20028;-82
2021/06/10 07:55:31;;;;;;;10.75;5.95;;;;;;;23.94;64.92;102136.59;5253019;28;20024;-82
2021/06/10 07:58:02;;;;;;;9.32;5.78;;;;;;;23.85;60.89;102157.13;5246599;28;20035;-82
2021/06/10 08:00:33;;;;;;;9.27;5.65;;;;;;;23.85;59.72;102154.41;5252863;28;20028;-85
2021/06/10 08:03:04;;;;;;;11.52;6.15;;;;;;;24.22;63.03;102159.97;5262403;28;20204;-84
2021/06/10 08:05:35;;;;;;;10.40;6.13;;;;;;;24.09;64.26;102151.84;5250753;28;20059;-84
2021/06/10 08:08:05;;;;;;;12.43;7.00;;;;;;;24.13;66.20;102158.56;5244345;28;20032;-84
2021/06/10 08:10:36;;;;;;;15.25;6.22;;;;;;;24.34;67.26;102160.91;5264845;28;20390;-84
2021/06/10 08:13:09;;;;;;;12.45;7.22;;;;;;;24.51;64.15;102162.03;5262271;28;20016;-84
2021/06/10 08:15:39;;;;;;;12.52;6.65;;;;;;;24.49;62.24;102155.06;5263749;28;20486;-84
2021/06/10 08:18:10;;;;;;;13.32;6.55;;;;;;;24.59;64.44;102157.28;5264535;28;20020;-85
2021/06/10 08:20:40;;;;;;;10.38;6.93;;;;;;;24.82;64.99;102153.88;5264719;28;20371;-85
2021/06/10 08:23:11;;;;;;;15.98;8.38;;;;;;;24.99;62.72;102153.00;5264403;28;20503;-84
2021/06/10 08:25:43;;;;;;;19.65;7.97;;;;;;;24.97;66.40;102149.66;5265284;28;20023;-85
2021/06/10 08:28:14;;;;;;;14.80;8.57;;;;;;;24.71;61.92;102142.59;5264250;28;20042;-84
2021/06/10 08:30:45;;;;;;;13.18;7.15;;;;;;;24.57;65.93;102137.50;5245638;28;20032;-83
2021/06/10 08:33:16;;;;;;;13.10;6.63;;;;;;;24.51;68.14;102144.72;5263841;28;20554;-84
2021/06/10 08:35:46;;;;;;;9.25;6.45;;;;;;;24.60;64.18;102148.84;5263833;28;20109;-83
2021/06/10 08:38:17;;;;;;;12.63;6.50;;;;;;;24.93;62.41;102148.44;5264062;28;20107;-84
2021/06/10 08:40:47;;;;;;;12.40;6.75;;;;;;;24.97;63.96;102151.56;5263676;28;20023;-84
2021/06/10 08:43:18;;;;;;;15.15;6.43;;;;;;;24.94;63.44;102160.25;5263359;28;20035;-84
2021/06/10 08:45:59;;;;;;;10.45;6.18;;;;;;;25.21;63.18;102158.88;5264037;28;20119;-84
2021/06/10 08:48:31;;;;;;;9.80;5.53;;;;;;;25.27;65.60;102157.94;5264061;28;20024;-84
2021/06/10 08:51:04;;;;;;;11.32;6.50;;;;;;;25.11;66.52;102155.03;5263248;28;20078;-86
2021/06/10 08:53:34;;;;;;;8.82;5.47;;;;;;;25.44;64.66;102149.88;5262862;28;20023;-84
2021/06/10 08:56:05;;;;;;;8.27;4.97;;;;;;;25.44;56.67;102160.88;5264572;28;20155;-84
2021/06/10 08:58:37;;;;;;;11.38;5.65;;;;;;;25.19;58.17;102157.44;5263909;28;20032;-84
2021/06/10 09:01:12;;;;;;;8.00;4.47;;;;;;;25.35;53.02;102159.53;5263870;28;20065;-84
2021/06/10 09:03:43;;;;;;;8.00;3.30;;;;;;;25.36;55.68;102157.63;5264000;28;20024;-84
2021/06/10 09:06:16;;;;;;;8.48;3.67;;;;;;;25.44;56.18;102171.03;5263174;28;20051;-84
2021/06/10 09:08:49;;;;;;;9.77;3.83;;;;;;;25.48;56.27;102172.25;5265665;28;20107;-84
2021/06/10 09:11:23;;;;;;;8.75;2.88;;;;;;;25.75;57.24;102167.19;5261122;28;20321;-85
2021/06/10 09:13:55;;;;;;;5.85;3.20;;;;;;;25.77;53.13;102167.81;5260161;28;20380;-85
2021/06/10 09:16:35;;;;;;;10.25;3.50;;;;;;;26.09;57.13;102173.84;5264193;28;20020;-85
2021/06/10 09:19:12;;;;;;;4.75;2.30;;;;;;;26.09;51.58;102182.06;5265191;28;20116;-84
2021/06/10 09:21:45;;;;;;;4.85;1.77;;;;;;;26.17;50.96;102178.16;5264467;28;20030;-84
2021/06/10 09:24:19;;;;;;;6.53;2.17;;;;;;;26.48;50.00;102171.47;5265383;28;20091;-83
2021/06/10 09:26:59;;;;;;;5.88;1.73;;;;;;;26.41;42.42;102174.34;5251735;28;20020;-84
2021/06/10 09:29:50;;;;;;;2.05;1.45;;;;;;;26.08;42.12;102175.75;5265399;28;20368;-84
2021/06/10 09:32:25;;;;;;;8.05;1.25;;;;;;;26.28;40.81;102177.31;5246665;28;20438;-85
2021/06/10 09:34:57;;;;;;;;;;;;;;;26.31;41.36;102174.09;5265342;28;20107;-83
2021/06/10 09:37:36;;;;;;;3.42;1.27;;;;;;;26.39;42.88;102179.22;5246243;28;20425;-84
2021/06/10 09:40:11;;;;;;;2.17;1.20;;;;;;;26.29;41.22;102173.47;5240678;28;20044;-84
2021/06/10 09:42:44;;;;;;;4.90;1.70;;;;;;;26.37;39.67;102175.06;5254605;28;20031;-84
2021/06/10 09:45:18;;;;;;;3.75;1.33;;;;;;;26.60;41.97;102181.38;5245845;28;20024;-83
2021/06/10 09:47:52;;;;;;;3.80;1.35;;;;;;;26.18;40.87;102177.91;5264447;28;20092;-84
2021/06/10 09:50:24;;;;;;;;;;;;;;;26.31;42.04;102168.59;5264375;28;20419;-84
2021/06/10 09:52:59;;;;;;;4.15;1.20;;;;;;;26.48;42.52;102175.06;5264382;28;19918;-84
2021/06/10 09:55:31;;;;;;;1.85;1.20;;;;;;;26.42;44.70;102175.16;5263638;28;20023;-83
2021/06/10 09:58:11;;;;;;;3.40;1.33;;;;;;;26.13;44.77;102180.53;5263763;28;20028;-84
2021/06/10 10:00:49;;;;;;;4.05;1.05;;;;;;;26.17;44.85;102173.50;5263485;28;20028;-84
2021/06/10 10:03:24;;;;;;;2.30;1.30;;;;;;;26.16;46.21;102171.00;5245263;28;20434;-86
2021/06/10 10:05:57;;;;;;;;;;;;;;;26.47;42.30;102170.66;5264173;28;20493;-84
2021/06/10 10:08:29;;;;;;;1.70;1.23;;;;;;;26.34;46.30;102176.34;5263483;28;19907;-84
2021/06/10 10:11:02;;;;;;;4.15;1.45;;;;;;;26.35;50.99;102186.28;5263275;28;20552;-84
2021/06/10 10:13:32;;;;;;;1.58;1.38;;;;;;;26.32;47.78;102176.59;5262946;28;20531;-84
2021/06/10 10:16:04;;;;;;;2.95;1.80;;;;;;;26.49;47.83;102175.91;5265658;28;20107;-82
2021/06/10 10:18:34;;;;;;;5.35;1.63;;;;;;;26.21;53.18;102177.44;5263949;28;20497;-84
2021/06/10 10:21:07;;;;;;;5.10;2.38;;;;;;;26.31;49.29;102177.69;5264002;28;20024;-83
2021/06/10 10:23:37;;;;;;;3.78;1.83;;;;;;;26.26;53.29;102166.56;5263757;28;20088;-82
2021/06/10 10:26:08;;;;;;;4.47;2.00;;;;;;;26.05;50.63;102167.97;5263833;28;20487;-83
2021/06/10 10:28:39;;;;;;;5.00;2.10;;;;;;;26.13;50.16;102169.53;5263322;28;20531;-84
2021/06/10 10:31:12;;;;;;;5.75;2.25;;;;;;;26.25;50.09;102169.53;5263546;28;20039;-84
2021/06/10 10:33:44;;;;;;;5.35;2.60;;;;;;;26.33;50.19;102166.44;5245312;28;20039;-84
2021/06/10 10:36:24;;;;;;;5.32;2.70;;;;;;;26.45;50.72;102166.44;5261487;28;20027;-84
2021/06/10 10:39:00;;;;;;;4.72;2.90;;;;;;;26.54;50.62;102171.34;5263034;28;20032;-84
2021/06/10 10:41:32;;;;;;;5.53;2.80;;;;;;;26.65;56.24;102163.31;5263872;28;20016;-84
2021/06/10 10:44:09;;;;;;;6.10;3.67;;;;;;;26.51;57.95;102158.09;5263006;28;20031;-84
2021/06/10 10:46:40;;;;;;;5.07;3.13;;;;;;;26.74;58.37;102165.44;5262941;28;20324;-84
2021/06/10 10:49:22;;;;;;;4.43;3.03;;;;;;;26.84;52.13;102168.41;5263915;28;20028;-85
2021/06/10 10:51:53;;;;;;;5.82;2.67;;;;;;;26.87;53.34;102163.53;5267708;28;20074;-84
2021/06/10 10:54:34;;;;;;;3.85;3.00;;;;;;;26.74;52.08;102161.88;5248760;28;20024;-85
2021/06/10 10:57:05;;;;;;;7.43;3.83;;;;;;;26.65;52.20;102160.56;5267895;28;20036;-85
2021/06/10 10:59:41;;;;;;;6.80;2.83;;;;;;;26.85;54.39;102158.25;5249003;28;20032;-85
2021/06/10 11:02:13;;;;;;;7.57;3.00;;;;;;;26.81;57.10;102160.66;5267270;28;20407;-84
2021/06/10 11:04:54;;;;;;;5.35;3.17;;;;;;;27.05;49.36;102161.41;5248312;28;20252;-85
2021/06/10 11:07:35;;;;;;;5.03;2.67;;;;;;;27.08;53.59;102162.88;5248377;28;20042;-84
2021/06/10 11:10:09;;;;;;;6.07;2.45;;;;;;;27.16;51.78;102147.88;5266170;28;20032;-84
2021/06/10 11:12:40;;;;;;;5.72;3.25;;;;;;;27.25;48.20;102144.47;5266372;28;20391;-83
2021/06/10 11:15:22;;;;;;;6.40;3.17;;;;;;;27.47;44.53;102147.38;5267348;28;20028;-84
2021/06/10 11:17:57;;;;;;;4.07;2.85;;;;;;;27.43;45.93;102137.09;5266175;28;20550;-84
2021/06/10 11:20:36;;;;;;;4.78;2.70;;;;;;;27.55;47.37;102133.16;5266017;28;20568;-84
2021/06/10 11:23:11;;;;;;;3.60;3.17;;;;;;;27.46;50.85;102131.06;5264350;28;20028;-84
2021/06/10 11:25:44;;;;;;;4.57;2.90;;;;;;;27.70;51.82;102123.50;5266291;28;20056;-84
2021/06/10 11:28:18;;;;;;;4.63;3.15;;;;;;;27.58;50.18;102116.16;5250141;28;20484;-84
2021/06/10 11:30:51;;;;;;;5.30;3.08;;;;;;;27.69;52.73;102119.91;5268162;28;20032;-84
2021/06/10 11:33:25;;;;;;;5.53;2.92;;;;;;;27.59;53.30;102115.06;5268333;28;20028;-84
2021/06/10 11:36:03;;;;;;;6.53;2.75;;;;;;;27.97;52.90;102107.16;5267738;28;20164;-84